TRA51Y EHAM-LEBL
Flight info
| Callsign | TRA51Y |
|---|---|
| Flight time | 1h 49m |
| Altitude | 37000 |
| Route | WOODY N872 MEDIL DCT KOVIN DCT DUCRA UM728 RESMI UN857 DISAK DCT DIRMO DCT VALKU DCT ATSUP DCT MINSO DCT DEGOL DCT PPG DCT ALBER |
| Aircraft | A21N/M-SDE3FGHIRWY/LB1 |
Departure
| Time | 2026-04-28 13:21 |
|---|---|
| Airport | Amsterdam Airport Schiphol (EHAM) |
Arrival
| Time | 2026-04-28 15:11 |
|---|---|
| Airport | Josep Tarradellas Barcelona-El Prat Airport (LEBL) |
| Time | Latitude | Longitude | Altitude | Speed | Heading |
|---|---|---|---|---|---|
| 2026-04-28 12:24 | 52.30468 | 4.76570 | -1 ft | 0 kts | 58° |
| 2026-04-28 13:03 | 52.30467 | 4.76569 | -1 ft | 1 kts | 58° |
| 2026-04-28 13:03 | 52.30456 | 4.76535 | -1 ft | 4 kts | 72° |
| 2026-04-28 13:04 | 52.30455 | 4.76499 | -1 ft | 3 kts | 132° |
| 2026-04-28 13:04 | 52.30457 | 4.76495 | -1 ft | 0 kts | 135° |
| 2026-04-28 13:08 | 52.30446 | 4.76505 | -1 ft | 4 kts | 151° |
| 2026-04-28 13:08 | 52.30415 | 4.76532 | -1 ft | 6 kts | 151° |
| 2026-04-28 13:09 | 52.30377 | 4.76569 | -1 ft | 7 kts | 148° |
| 2026-04-28 13:09 | 52.30351 | 4.76640 | -1 ft | 8 kts | 104° |
| 2026-04-28 13:09 | 52.30321 | 4.76734 | -1 ft | 11 kts | 130° |
| 2026-04-28 13:09 | 52.30310 | 4.76811 | -1 ft | 12 kts | 80° |
| 2026-04-28 13:10 | 52.30351 | 4.76927 | -1 ft | 12 kts | 58° |
| 2026-04-28 13:10 | 52.30395 | 4.77040 | -1 ft | 12 kts | 57° |
| 2026-04-28 13:10 | 52.30438 | 4.77152 | -1 ft | 12 kts | 58° |
| 2026-04-28 13:10 | 52.30480 | 4.77262 | -1 ft | 11 kts | 57° |
| 2026-04-28 13:11 | 52.30527 | 4.77381 | -1 ft | 14 kts | 58° |
| 2026-04-28 13:11 | 52.30575 | 4.77506 | -1 ft | 9 kts | 57° |
| 2026-04-28 13:11 | 52.30633 | 4.77579 | -1 ft | 14 kts | 19° |
| 2026-04-28 13:11 | 52.30744 | 4.77595 | -1 ft | 16 kts | 3° |
| 2026-04-28 13:12 | 52.30850 | 4.77604 | -1 ft | 15 kts | 3° |
| 2026-04-28 13:12 | 52.30953 | 4.77616 | -1 ft | 15 kts | 3° |
| 2026-04-28 13:12 | 52.31055 | 4.77623 | -1 ft | 14 kts | 2° |
| 2026-04-28 13:12 | 52.31154 | 4.77630 | -1 ft | 14 kts | 3° |
| 2026-04-28 13:13 | 52.31251 | 4.77642 | -1 ft | 14 kts | 4° |
| 2026-04-28 13:13 | 52.31346 | 4.77652 | -1 ft | 13 kts | 3° |
| 2026-04-28 13:13 | 52.31437 | 4.77645 | -1 ft | 13 kts | 342° |
| 2026-04-28 13:13 | 52.31508 | 4.77563 | -1 ft | 12 kts | 316° |
| 2026-04-28 13:14 | 52.31561 | 4.77464 | -1 ft | 11 kts | 300° |
| 2026-04-28 13:14 | 52.31577 | 4.77345 | -1 ft | 11 kts | 268° |
| 2026-04-28 13:14 | 52.31572 | 4.77213 | -1 ft | 12 kts | 266° |
| 2026-04-28 13:14 | 52.31567 | 4.77068 | -1 ft | 13 kts | 266° |
| 2026-04-28 13:15 | 52.31562 | 4.76915 | -1 ft | 14 kts | 266° |
| 2026-04-28 13:15 | 52.31556 | 4.76753 | -1 ft | 15 kts | 266° |
| 2026-04-28 13:15 | 52.31551 | 4.76583 | -1 ft | 15 kts | 267° |
| 2026-04-28 13:15 | 52.31544 | 4.76405 | -1 ft | 16 kts | 266° |
| 2026-04-28 13:16 | 52.31537 | 4.76220 | -1 ft | 17 kts | 266° |
| 2026-04-28 13:16 | 52.31531 | 4.76030 | -1 ft | 17 kts | 267° |
| 2026-04-28 13:16 | 52.31524 | 4.75834 | -1 ft | 18 kts | 267° |
| 2026-04-28 13:16 | 52.31518 | 4.75631 | -1 ft | 18 kts | 267° |
| 2026-04-28 13:17 | 52.31511 | 4.75424 | -1 ft | 18 kts | 267° |
| 2026-04-28 13:17 | 52.31504 | 4.75224 | -1 ft | 17 kts | 266° |
| 2026-04-28 13:17 | 52.31502 | 4.75180 | -1 ft | 17 kts | 266° |
| 2026-04-28 13:17 | 52.31496 | 4.75004 | -1 ft | 15 kts | 266° |
| 2026-04-28 13:18 | 52.31490 | 4.74843 | -1 ft | 14 kts | 266° |
| 2026-04-28 13:18 | 52.31487 | 4.74731 | -1 ft | 8 kts | 266° |
| 2026-04-28 13:18 | 52.31504 | 4.74669 | -1 ft | 5 kts | 333° |
| 2026-04-28 13:18 | 52.31538 | 4.74664 | -1 ft | 5 kts | 358° |
| 2026-04-28 13:19 | 52.31572 | 4.74662 | -1 ft | 6 kts | 358° |
| 2026-04-28 13:19 | 52.31616 | 4.74663 | 0 ft | 7 kts | 12° |
| 2026-04-28 13:19 | 52.31660 | 4.74690 | 0 ft | 5 kts | 48° |
| 2026-04-28 13:19 | 52.31666 | 4.74730 | 0 ft | 0 kts | 88° |
| 2026-04-28 13:20 | 52.31666 | 4.74731 | 0 ft | 1 kts | 88° |
| 2026-04-28 13:20 | 52.31670 | 4.74894 | -2 ft | 42 kts | 87° |
| 2026-04-28 13:21 | 52.31701 | 4.75745 | -1 ft | 104 kts | 86° |
| 2026-04-28 13:21 | 52.31751 | 4.77200 | -1 ft | 149 kts | 87° |
| 2026-04-28 13:21 | 52.31801 | 4.78952 | 448 ft | 152 kts | 84° |
| 2026-04-28 13:21 | 52.31616 | 4.80671 | 935 ft | 166 kts | 120° |
| 2026-04-28 13:22 | 52.30607 | 4.81766 | 1444 ft | 186 kts | 148° |
| 2026-04-28 13:22 | 52.29352 | 4.82602 | 1733 ft | 205 kts | 152° |
| 2026-04-28 13:22 | 52.27951 | 4.83476 | 1997 ft | 225 kts | 152° |
| 2026-04-28 13:22 | 52.26468 | 4.84406 | 2600 ft | 229 kts | 154° |
| 2026-04-28 13:23 | 52.24876 | 4.84864 | 3269 ft | 241 kts | 175° |
| 2026-04-28 13:23 | 52.23251 | 4.84801 | 4294 ft | 223 kts | 176° |
| 2026-04-28 13:23 | 52.21711 | 4.84742 | 4999 ft | 228 kts | 176° |
| 2026-04-28 13:23 | 52.20083 | 4.84697 | 5566 ft | 237 kts | 175° |
| 2026-04-28 13:24 | 52.18421 | 4.84655 | 6277 ft | 244 kts | 176° |
| 2026-04-28 13:24 | 52.16640 | 4.84620 | 6638 ft | 266 kts | 175° |
| 2026-04-28 13:24 | 52.14746 | 4.84585 | 7276 ft | 274 kts | 175° |
| 2026-04-28 13:24 | 52.12840 | 4.84545 | 8049 ft | 277 kts | 176° |
| 2026-04-28 13:25 | 52.10897 | 4.84502 | 8839 ft | 281 kts | 176° |
| 2026-04-28 13:25 | 52.08934 | 4.84456 | 9633 ft | 284 kts | 176° |
| 2026-04-28 13:25 | 52.06947 | 4.84410 | 10377 ft | 287 kts | 177° |
| 2026-04-28 13:25 | 52.04930 | 4.84368 | 11095 ft | 290 kts | 176° |
| 2026-04-28 13:26 | 52.02907 | 4.84169 | 11808 ft | 296 kts | 185° |
| 2026-04-28 13:26 | 52.00894 | 4.83329 | 12541 ft | 303 kts | 196° |
| 2026-04-28 13:26 | 51.98954 | 4.81895 | 13072 ft | 308 kts | 202° |
| 2026-04-28 13:26 | 51.97024 | 4.80369 | 13469 ft | 309 kts | 202° |
| 2026-04-28 13:27 | 51.95088 | 4.78839 | 14259 ft | 310 kts | 203° |
| 2026-04-28 13:27 | 51.93143 | 4.77310 | 14941 ft | 312 kts | 202° |
| 2026-04-28 13:27 | 51.91180 | 4.75773 | 15578 ft | 315 kts | 202° |
| 2026-04-28 13:27 | 51.89196 | 4.74220 | 16197 ft | 318 kts | 202° |
| 2026-04-28 13:28 | 51.87193 | 4.72656 | 16827 ft | 322 kts | 202° |
| 2026-04-28 13:28 | 51.85168 | 4.71075 | 17459 ft | 325 kts | 203° |
| 2026-04-28 13:28 | 51.83120 | 4.69480 | 18082 ft | 328 kts | 202° |
| 2026-04-28 13:28 | 51.81052 | 4.67867 | 18687 ft | 332 kts | 202° |
| 2026-04-28 13:29 | 51.78961 | 4.66236 | 19224 ft | 335 kts | 202° |
| 2026-04-28 13:29 | 51.76852 | 4.64593 | 19785 ft | 338 kts | 202° |
| 2026-04-28 13:29 | 51.74727 | 4.62943 | 20357 ft | 339 kts | 203° |
| 2026-04-28 13:29 | 51.72592 | 4.61287 | 20911 ft | 342 kts | 202° |
| 2026-04-28 13:30 | 51.70470 | 4.59639 | 21484 ft | 343 kts | 202° |
| 2026-04-28 13:30 | 51.68284 | 4.57946 | 22089 ft | 345 kts | 202° |
| 2026-04-28 13:30 | 51.66119 | 4.56270 | 22644 ft | 347 kts | 202° |
| 2026-04-28 13:30 | 51.63930 | 4.54583 | 23182 ft | 350 kts | 201° |
| 2026-04-28 13:31 | 51.59504 | 4.51172 | 24178 ft | 356 kts | 202° |
| 2026-04-28 13:31 | 51.57267 | 4.49447 | 24592 ft | 358 kts | 202° |
| 2026-04-28 13:31 | 51.55038 | 4.47731 | 25002 ft | 361 kts | 202° |
| 2026-04-28 13:32 | 51.52758 | 4.45981 | 25337 ft | 368 kts | 202° |
| 2026-04-28 13:32 | 51.50411 | 4.44188 | 25460 ft | 379 kts | 202° |
| 2026-04-28 13:32 | 51.47998 | 4.42346 | 25607 ft | 390 kts | 203° |
| 2026-04-28 13:32 | 51.45517 | 4.40446 | 25731 ft | 400 kts | 202° |
| 2026-04-28 13:33 | 51.42979 | 4.38502 | 25860 ft | 409 kts | 202° |
| 2026-04-28 13:33 | 51.40388 | 4.36523 | 26090 ft | 416 kts | 203° |
| 2026-04-28 13:33 | 51.37766 | 4.34526 | 26418 ft | 419 kts | 204° |
| 2026-04-28 13:33 | 51.35122 | 4.32517 | 26775 ft | 422 kts | 203° |
| 2026-04-28 13:34 | 51.32463 | 4.30498 | 27142 ft | 424 kts | 202° |
| 2026-04-28 13:34 | 51.29785 | 4.28468 | 27491 ft | 427 kts | 204° |
| 2026-04-28 13:34 | 51.27096 | 4.26425 | 27835 ft | 430 kts | 203° |
| 2026-04-28 13:34 | 51.24386 | 4.24368 | 28217 ft | 431 kts | 203° |
| 2026-04-28 13:35 | 51.21678 | 4.22316 | 28652 ft | 432 kts | 203° |
| 2026-04-28 13:35 | 51.18955 | 4.20259 | 28987 ft | 434 kts | 204° |
| 2026-04-28 13:35 | 51.16204 | 4.18251 | 29329 ft | 435 kts | 199° |
| 2026-04-28 13:35 | 51.13350 | 4.16642 | 29650 ft | 437 kts | 198° |
| 2026-04-28 13:36 | 51.10466 | 4.15051 | 29943 ft | 439 kts | 198° |
| 2026-04-28 13:36 | 51.07569 | 4.13468 | 30236 ft | 442 kts | 198° |
| 2026-04-28 13:36 | 51.04654 | 4.11881 | 30528 ft | 443 kts | 197° |
| 2026-04-28 13:36 | 51.01732 | 4.10288 | 30786 ft | 445 kts | 198° |
| 2026-04-28 13:37 | 50.98796 | 4.08686 | 31047 ft | 447 kts | 198° |
| 2026-04-28 13:37 | 50.95858 | 4.07088 | 31436 ft | 446 kts | 197° |
| 2026-04-28 13:37 | 50.92933 | 4.05502 | 31878 ft | 444 kts | 198° |
| 2026-04-28 13:37 | 50.90016 | 4.03921 | 32242 ft | 443 kts | 198° |
| 2026-04-28 13:38 | 50.87103 | 4.02323 | 32650 ft | 442 kts | 199° |
| 2026-04-28 13:38 | 50.84236 | 4.00616 | 33093 ft | 440 kts | 200° |
| 2026-04-28 13:38 | 50.81403 | 3.98805 | 33488 ft | 439 kts | 202° |
| 2026-04-28 13:38 | 50.78595 | 3.96943 | 33931 ft | 436 kts | 202° |
| 2026-04-28 13:39 | 50.75818 | 3.95084 | 34456 ft | 430 kts | 202° |
| 2026-04-28 13:39 | 50.73067 | 3.93258 | 34792 ft | 429 kts | 202° |
| 2026-04-28 13:39 | 50.70308 | 3.91461 | 35001 ft | 430 kts | 201° |
| 2026-04-28 13:39 | 50.67536 | 3.89687 | 35280 ft | 429 kts | 201° |
| 2026-04-28 13:40 | 50.64769 | 3.87937 | 35555 ft | 429 kts | 201° |
| 2026-04-28 13:40 | 50.61987 | 3.86189 | 35705 ft | 432 kts | 201° |
| 2026-04-28 13:40 | 50.59190 | 3.84432 | 35910 ft | 433 kts | 201° |
| 2026-04-28 13:40 | 50.56397 | 3.82663 | 36193 ft | 432 kts | 202° |
| 2026-04-28 13:41 | 50.53630 | 3.80833 | 36414 ft | 433 kts | 203° |
| 2026-04-28 13:41 | 50.50864 | 3.78935 | 36584 ft | 434 kts | 204° |
| 2026-04-28 13:41 | 50.48101 | 3.77006 | 36835 ft | 434 kts | 204° |
| 2026-04-28 13:41 | 50.45341 | 3.75081 | 37013 ft | 435 kts | 204° |
| 2026-04-28 13:42 | 50.42565 | 3.73161 | 37119 ft | 436 kts | 203° |
| 2026-04-28 13:42 | 50.39789 | 3.71261 | 37143 ft | 436 kts | 203° |
| 2026-04-28 13:42 | 50.34262 | 3.67520 | 37136 ft | 436 kts | 202° |
| 2026-04-28 13:43 | 50.28706 | 3.63780 | 37134 ft | 434 kts | 202° |
| 2026-04-28 13:43 | 50.23160 | 3.60045 | 37127 ft | 435 kts | 203° |
| 2026-04-28 13:44 | 50.17624 | 3.56310 | 37119 ft | 434 kts | 202° |
| 2026-04-28 13:44 | 50.12076 | 3.52584 | 37127 ft | 433 kts | 203° |
| 2026-04-28 13:45 | 50.06543 | 3.48885 | 37128 ft | 432 kts | 203° |
| 2026-04-28 13:45 | 50.01029 | 3.45206 | 37137 ft | 431 kts | 203° |
| 2026-04-28 13:46 | 49.95519 | 3.41544 | 37127 ft | 431 kts | 203° |
| 2026-04-28 13:46 | 49.90021 | 3.37903 | 37118 ft | 430 kts | 204° |
| 2026-04-28 13:47 | 49.84527 | 3.34255 | 37125 ft | 429 kts | 204° |
| 2026-04-28 13:47 | 49.79039 | 3.30621 | 37109 ft | 429 kts | 204° |
| 2026-04-28 13:48 | 49.73550 | 3.27001 | 37108 ft | 429 kts | 203° |
| 2026-04-28 13:48 | 49.68062 | 3.23391 | 37100 ft | 429 kts | 204° |
| 2026-04-28 13:49 | 49.62564 | 3.19784 | 37102 ft | 429 kts | 204° |
| 2026-04-28 13:49 | 49.57068 | 3.16178 | 37106 ft | 430 kts | 204° |
| 2026-04-28 13:50 | 49.51563 | 3.12582 | 37113 ft | 430 kts | 203° |
| 2026-04-28 13:50 | 49.46326 | 3.08363 | 37099 ft | 428 kts | 214° |
| 2026-04-28 13:51 | 49.41368 | 3.03305 | 37105 ft | 428 kts | 214° |
| 2026-04-28 13:51 | 49.36400 | 2.98260 | 37097 ft | 428 kts | 214° |
| 2026-04-28 13:52 | 49.31407 | 2.93203 | 37096 ft | 428 kts | 214° |
| 2026-04-28 13:52 | 49.26470 | 2.88227 | 37088 ft | 428 kts | 214° |
| 2026-04-28 13:53 | 49.21506 | 2.83224 | 37100 ft | 427 kts | 214° |
| 2026-04-28 13:53 | 49.16549 | 2.78244 | 37105 ft | 426 kts | 214° |
| 2026-04-28 13:54 | 49.11599 | 2.73280 | 37101 ft | 425 kts | 214° |
| 2026-04-28 13:54 | 49.06658 | 2.68324 | 37102 ft | 425 kts | 214° |
| 2026-04-28 13:55 | 49.02545 | 2.64225 | 37107 ft | 424 kts | 214° |
| 2026-04-28 13:55 | 48.97600 | 2.59315 | 37109 ft | 424 kts | 214° |
| 2026-04-28 13:56 | 48.92666 | 2.54423 | 37106 ft | 424 kts | 214° |
| 2026-04-28 13:56 | 48.87729 | 2.49525 | 37101 ft | 423 kts | 214° |
| 2026-04-28 13:57 | 48.82796 | 2.44647 | 37100 ft | 423 kts | 214° |
| 2026-04-28 13:57 | 48.77858 | 2.39770 | 37095 ft | 423 kts | 214° |
| 2026-04-28 13:58 | 48.72915 | 2.34910 | 37098 ft | 424 kts | 214° |
| 2026-04-28 13:58 | 48.67967 | 2.30058 | 37102 ft | 424 kts | 214° |
| 2026-04-28 13:59 | 48.63014 | 2.25207 | 37096 ft | 424 kts | 214° |
| 2026-04-28 13:59 | 48.58026 | 2.20481 | 37099 ft | 424 kts | 208° |
| 2026-04-28 14:00 | 48.52417 | 2.17760 | 37096 ft | 426 kts | 194° |
| 2026-04-28 14:00 | 48.46619 | 2.15902 | 37094 ft | 426 kts | 195° |
| 2026-04-28 14:01 | 48.40828 | 2.14020 | 37073 ft | 426 kts | 195° |
| 2026-04-28 14:01 | 48.35036 | 2.12154 | 37075 ft | 425 kts | 195° |
| 2026-04-28 14:02 | 48.29226 | 2.10481 | 37074 ft | 427 kts | 187° |
| 2026-04-28 14:02 | 48.23270 | 2.11064 | 37067 ft | 432 kts | 175° |
| 2026-04-28 14:03 | 48.17355 | 2.12338 | 37050 ft | 432 kts | 176° |
| 2026-04-28 14:03 | 48.11404 | 2.13307 | 37042 ft | 428 kts | 182° |
| 2026-04-28 14:04 | 48.05401 | 2.13639 | 37050 ft | 429 kts | 182° |
| 2026-04-28 14:04 | 47.99440 | 2.13983 | 37055 ft | 429 kts | 182° |
| 2026-04-28 14:05 | 47.93478 | 2.14340 | 37056 ft | 429 kts | 182° |
| 2026-04-28 14:05 | 47.87560 | 2.14693 | 37064 ft | 429 kts | 182° |
| 2026-04-28 14:06 | 47.81600 | 2.15035 | 37067 ft | 428 kts | 182° |
| 2026-04-28 14:06 | 47.75644 | 2.15383 | 37044 ft | 428 kts | 183° |
| 2026-04-28 14:07 | 47.69696 | 2.15733 | 37051 ft | 427 kts | 183° |
| 2026-04-28 14:07 | 47.63757 | 2.16071 | 37053 ft | 427 kts | 183° |
| 2026-04-28 14:08 | 47.57826 | 2.16415 | 37052 ft | 427 kts | 183° |
| 2026-04-28 14:08 | 47.51883 | 2.16761 | 37041 ft | 427 kts | 183° |
| 2026-04-28 14:09 | 47.45952 | 2.17107 | 37044 ft | 427 kts | 183° |
| 2026-04-28 14:09 | 47.40016 | 2.17451 | 37041 ft | 427 kts | 183° |
| 2026-04-28 14:10 | 47.34083 | 2.17795 | 37017 ft | 426 kts | 183° |
| 2026-04-28 14:10 | 47.28153 | 2.18132 | 37025 ft | 426 kts | 183° |
| 2026-04-28 14:11 | 47.22228 | 2.18473 | 37029 ft | 426 kts | 183° |
| 2026-04-28 14:11 | 47.16307 | 2.18811 | 37028 ft | 426 kts | 183° |
| 2026-04-28 14:12 | 47.10383 | 2.19242 | 37014 ft | 429 kts | 178° |
| 2026-04-28 14:12 | 47.04596 | 2.21736 | 37015 ft | 439 kts | 164° |
| 2026-04-28 14:13 | 46.98963 | 2.25060 | 37014 ft | 439 kts | 164° |
| 2026-04-28 14:13 | 46.93282 | 2.28375 | 37002 ft | 439 kts | 164° |
| 2026-04-28 14:14 | 46.87603 | 2.31667 | 37010 ft | 439 kts | 164° |
| 2026-04-28 14:14 | 46.81922 | 2.34962 | 37012 ft | 439 kts | 164° |
| 2026-04-28 14:15 | 46.76246 | 2.38261 | 37014 ft | 439 kts | 164° |
| 2026-04-28 14:15 | 46.70566 | 2.41543 | 37016 ft | 439 kts | 164° |
| 2026-04-28 14:16 | 46.64887 | 2.44808 | 37014 ft | 439 kts | 164° |
| 2026-04-28 14:16 | 46.59205 | 2.48074 | 37024 ft | 439 kts | 164° |
| 2026-04-28 14:17 | 46.53522 | 2.51345 | 37005 ft | 439 kts | 164° |
| 2026-04-28 14:17 | 46.47846 | 2.54589 | 37011 ft | 439 kts | 164° |
| 2026-04-28 14:18 | 46.42160 | 2.57821 | 37031 ft | 439 kts | 164° |
| 2026-04-28 14:18 | 46.36486 | 2.61066 | 37038 ft | 439 kts | 164° |
| 2026-04-28 14:19 | 46.30813 | 2.64307 | 37022 ft | 438 kts | 164° |
| 2026-04-28 14:19 | 46.25131 | 2.67532 | 37015 ft | 438 kts | 164° |
| 2026-04-28 14:20 | 46.19454 | 2.70746 | 37025 ft | 438 kts | 164° |
| 2026-04-28 14:20 | 46.13778 | 2.73955 | 37032 ft | 438 kts | 164° |
| 2026-04-28 14:21 | 46.08100 | 2.77157 | 37016 ft | 438 kts | 164° |
| 2026-04-28 14:21 | 46.02412 | 2.80351 | 37007 ft | 439 kts | 164° |
| 2026-04-28 14:22 | 45.96711 | 2.83513 | 37010 ft | 439 kts | 165° |
| 2026-04-28 14:22 | 45.90977 | 2.86537 | 37006 ft | 439 kts | 166° |
| 2026-04-28 14:23 | 45.85222 | 2.89525 | 37011 ft | 440 kts | 166° |
| 2026-04-28 14:23 | 45.79466 | 2.92532 | 37015 ft | 441 kts | 165° |
| 2026-04-28 14:24 | 45.73670 | 2.94922 | 37017 ft | 431 kts | 178° |
| 2026-04-28 14:24 | 45.67706 | 2.95096 | 37016 ft | 425 kts | 186° |
| 2026-04-28 14:25 | 45.61829 | 2.94930 | 37028 ft | 426 kts | 186° |
| 2026-04-28 14:25 | 45.55905 | 2.94773 | 37039 ft | 426 kts | 186° |
| 2026-04-28 14:26 | 45.49977 | 2.94618 | 37039 ft | 426 kts | 186° |
| 2026-04-28 14:26 | 45.44049 | 2.94467 | 37054 ft | 426 kts | 186° |
| 2026-04-28 14:27 | 45.38128 | 2.94313 | 37064 ft | 426 kts | 186° |
| 2026-04-28 14:27 | 45.32200 | 2.94164 | 37061 ft | 426 kts | 186° |
| 2026-04-28 14:28 | 45.26274 | 2.94004 | 37072 ft | 426 kts | 186° |
| 2026-04-28 14:28 | 45.20354 | 2.93845 | 37072 ft | 425 kts | 186° |
| 2026-04-28 14:29 | 45.14441 | 2.93686 | 37061 ft | 425 kts | 186° |
| 2026-04-28 14:29 | 45.08530 | 2.93528 | 37070 ft | 425 kts | 186° |
| 2026-04-28 14:30 | 45.02624 | 2.93372 | 37083 ft | 424 kts | 186° |
| 2026-04-28 14:30 | 44.96723 | 2.93217 | 37086 ft | 424 kts | 186° |
| 2026-04-28 14:31 | 44.90828 | 2.93069 | 37067 ft | 424 kts | 186° |
| 2026-04-28 14:31 | 44.84936 | 2.92926 | 37074 ft | 423 kts | 186° |
| 2026-04-28 14:32 | 44.79062 | 2.92619 | 37072 ft | 422 kts | 188° |
| 2026-04-28 14:32 | 44.73204 | 2.92130 | 37076 ft | 422 kts | 188° |
| 2026-04-28 14:33 | 44.67346 | 2.91636 | 37076 ft | 422 kts | 188° |
| 2026-04-28 14:33 | 44.61529 | 2.91197 | 37072 ft | 422 kts | 188° |
| 2026-04-28 14:34 | 44.52741 | 2.90585 | 37054 ft | 422 kts | 188° |
| 2026-04-28 14:35 | 44.46878 | 2.90165 | 37057 ft | 422 kts | 188° |
| 2026-04-28 14:35 | 44.41020 | 2.89734 | 37059 ft | 422 kts | 188° |
| 2026-04-28 14:36 | 44.35157 | 2.89306 | 37052 ft | 422 kts | 188° |
| 2026-04-28 14:36 | 44.29285 | 2.88886 | 37057 ft | 422 kts | 188° |
| 2026-04-28 14:37 | 44.23415 | 2.88466 | 37062 ft | 422 kts | 188° |
| 2026-04-28 14:37 | 44.17544 | 2.88041 | 37048 ft | 422 kts | 188° |
| 2026-04-28 14:38 | 44.11714 | 2.87622 | 37052 ft | 422 kts | 187° |
| 2026-04-28 14:38 | 44.05804 | 2.87211 | 37055 ft | 423 kts | 187° |
| 2026-04-28 14:39 | 43.99932 | 2.86794 | 37054 ft | 423 kts | 187° |
| 2026-04-28 14:39 | 43.94094 | 2.86372 | 37046 ft | 423 kts | 187° |
| 2026-04-28 14:40 | 43.88219 | 2.85943 | 37052 ft | 423 kts | 187° |
| 2026-04-28 14:40 | 43.82351 | 2.85526 | 37052 ft | 423 kts | 187° |
| 2026-04-28 14:41 | 43.76476 | 2.85158 | 37036 ft | 423 kts | 185° |
| 2026-04-28 14:41 | 43.70569 | 2.85174 | 37044 ft | 425 kts | 183° |
| 2026-04-28 14:42 | 43.64660 | 2.85371 | 37051 ft | 425 kts | 183° |
| 2026-04-28 14:42 | 43.58755 | 2.85526 | 37029 ft | 424 kts | 184° |
| 2026-04-28 14:43 | 43.52856 | 2.85620 | 37029 ft | 424 kts | 184° |
| 2026-04-28 14:43 | 43.47956 | 2.85678 | 37032 ft | 424 kts | 184° |
| 2026-04-28 14:44 | 43.42064 | 2.85753 | 37036 ft | 423 kts | 184° |
| 2026-04-28 14:44 | 43.36172 | 2.85833 | 37025 ft | 423 kts | 183° |
| 2026-04-28 14:45 | 43.30281 | 2.85918 | 37019 ft | 424 kts | 183° |
| 2026-04-28 14:45 | 43.27287 | 2.85959 | 36767 ft | 436 kts | 183° |
| 2026-04-28 14:45 | 43.24213 | 2.86000 | 36508 ft | 446 kts | 183° |
| 2026-04-28 14:45 | 43.21107 | 2.86042 | 35912 ft | 446 kts | 183° |
| 2026-04-28 14:46 | 43.18001 | 2.86090 | 35144 ft | 447 kts | 182° |
| 2026-04-28 14:46 | 43.14890 | 2.86142 | 34414 ft | 447 kts | 182° |
| 2026-04-28 14:46 | 43.11807 | 2.86194 | 33995 ft | 441 kts | 182° |
| 2026-04-28 14:46 | 43.08749 | 2.86244 | 33267 ft | 440 kts | 182° |
| 2026-04-28 14:47 | 43.05667 | 2.86288 | 32346 ft | 445 kts | 182° |
| 2026-04-28 14:47 | 43.02579 | 2.86330 | 31777 ft | 442 kts | 182° |
| 2026-04-28 14:47 | 42.99517 | 2.86371 | 31223 ft | 438 kts | 182° |
| 2026-04-28 14:47 | 42.96477 | 2.86411 | 30637 ft | 435 kts | 182° |
| 2026-04-28 14:48 | 42.93465 | 2.86454 | 30111 ft | 431 kts | 182° |
| 2026-04-28 14:48 | 42.90473 | 2.86498 | 29516 ft | 427 kts | 182° |
| 2026-04-28 14:48 | 42.87522 | 2.86539 | 29007 ft | 422 kts | 182° |
| 2026-04-28 14:48 | 42.84605 | 2.86580 | 28484 ft | 417 kts | 182° |
| 2026-04-28 14:49 | 42.81724 | 2.86622 | 27973 ft | 412 kts | 182° |
| 2026-04-28 14:49 | 42.78873 | 2.86664 | 27475 ft | 407 kts | 182° |
| 2026-04-28 14:49 | 42.76060 | 2.86704 | 26981 ft | 402 kts | 182° |
| 2026-04-28 14:49 | 42.73292 | 2.86518 | 26491 ft | 396 kts | 187° |
| 2026-04-28 14:50 | 42.70560 | 2.86196 | 26013 ft | 391 kts | 187° |
| 2026-04-28 14:50 | 42.67866 | 2.85878 | 25557 ft | 387 kts | 187° |
| 2026-04-28 14:50 | 42.65203 | 2.85566 | 25103 ft | 382 kts | 187° |
| 2026-04-28 14:50 | 42.62565 | 2.85258 | 24657 ft | 378 kts | 187° |
| 2026-04-28 14:51 | 42.59959 | 2.84953 | 24215 ft | 374 kts | 187° |
| 2026-04-28 14:51 | 42.57372 | 2.84649 | 23752 ft | 371 kts | 187° |
| 2026-04-28 14:51 | 42.54813 | 2.84349 | 23276 ft | 367 kts | 187° |
| 2026-04-28 14:51 | 42.52279 | 2.84053 | 22816 ft | 363 kts | 187° |
| 2026-04-28 14:52 | 42.49783 | 2.83761 | 22379 ft | 358 kts | 187° |
| 2026-04-28 14:52 | 42.47318 | 2.83472 | 21931 ft | 354 kts | 187° |
| 2026-04-28 14:52 | 42.44882 | 2.83150 | 21499 ft | 349 kts | 191° |
| 2026-04-28 14:52 | 42.42509 | 2.82570 | 21040 ft | 345 kts | 192° |
| 2026-04-28 14:53 | 42.40158 | 2.81988 | 20609 ft | 342 kts | 192° |
| 2026-04-28 14:53 | 42.37830 | 2.81416 | 20179 ft | 339 kts | 192° |
| 2026-04-28 14:53 | 42.35515 | 2.80849 | 19734 ft | 337 kts | 192° |
| 2026-04-28 14:53 | 42.33213 | 2.80280 | 19304 ft | 335 kts | 192° |
| 2026-04-28 14:54 | 42.30960 | 2.79722 | 18874 ft | 333 kts | 192° |
| 2026-04-28 14:54 | 42.28654 | 2.79154 | 18441 ft | 332 kts | 192° |
| 2026-04-28 14:54 | 42.26393 | 2.78600 | 17970 ft | 330 kts | 192° |
| 2026-04-28 14:54 | 42.24173 | 2.78056 | 17551 ft | 327 kts | 192° |
| 2026-04-28 14:55 | 42.21945 | 2.77512 | 17133 ft | 324 kts | 192° |
| 2026-04-28 14:55 | 42.19738 | 2.76976 | 16729 ft | 321 kts | 192° |
| 2026-04-28 14:55 | 42.17546 | 2.76441 | 16324 ft | 319 kts | 192° |
| 2026-04-28 14:55 | 42.15374 | 2.75911 | 15930 ft | 316 kts | 192° |
| 2026-04-28 14:56 | 42.13214 | 2.75384 | 15534 ft | 314 kts | 192° |
| 2026-04-28 14:56 | 42.11067 | 2.74860 | 15142 ft | 313 kts | 192° |
| 2026-04-28 14:56 | 42.08934 | 2.74339 | 14748 ft | 311 kts | 192° |
| 2026-04-28 14:56 | 42.06810 | 2.73820 | 14359 ft | 310 kts | 192° |
| 2026-04-28 14:57 | 42.04694 | 2.73304 | 13974 ft | 309 kts | 191° |
| 2026-04-28 14:57 | 42.03263 | 2.72956 | 13684 ft | 308 kts | 191° |
| 2026-04-28 14:57 | 42.00476 | 2.72277 | 13141 ft | 306 kts | 191° |
| 2026-04-28 14:57 | 41.98392 | 2.71767 | 12749 ft | 303 kts | 191° |
| 2026-04-28 14:58 | 41.96321 | 2.71263 | 12355 ft | 301 kts | 191° |
| 2026-04-28 14:58 | 41.94268 | 2.70766 | 11961 ft | 299 kts | 191° |
| 2026-04-28 14:58 | 41.92227 | 2.70271 | 11568 ft | 297 kts | 191° |
| 2026-04-28 14:58 | 41.90199 | 2.69778 | 11178 ft | 296 kts | 191° |
| 2026-04-28 14:59 | 41.88180 | 2.69289 | 10779 ft | 295 kts | 191° |
| 2026-04-28 14:59 | 41.86166 | 2.68802 | 10392 ft | 293 kts | 191° |
| 2026-04-28 14:59 | 41.84171 | 2.68321 | 10132 ft | 287 kts | 191° |
| 2026-04-28 14:59 | 41.82231 | 2.67853 | 9993 ft | 281 kts | 191° |
| 2026-04-28 15:00 | 41.80311 | 2.67389 | 9930 ft | 279 kts | 191° |
| 2026-04-28 15:00 | 41.78404 | 2.66931 | 9722 ft | 277 kts | 191° |
| 2026-04-28 15:00 | 41.76498 | 2.66477 | 9484 ft | 279 kts | 191° |
| 2026-04-28 15:00 | 41.74594 | 2.66021 | 9248 ft | 278 kts | 191° |
| 2026-04-28 15:01 | 41.72682 | 2.65561 | 9015 ft | 280 kts | 190° |
| 2026-04-28 15:01 | 41.70772 | 2.65098 | 8784 ft | 278 kts | 190° |
| 2026-04-28 15:01 | 41.68879 | 2.64640 | 8553 ft | 276 kts | 190° |
| 2026-04-28 15:01 | 41.66990 | 2.64186 | 8325 ft | 275 kts | 190° |
| 2026-04-28 15:02 | 41.65124 | 2.63674 | 8095 ft | 272 kts | 198° |
| 2026-04-28 15:02 | 41.63412 | 2.62618 | 7964 ft | 273 kts | 213° |
| 2026-04-28 15:02 | 41.61955 | 2.61012 | 7967 ft | 273 kts | 221° |
| 2026-04-28 15:02 | 41.60536 | 2.59296 | 7968 ft | 276 kts | 221° |
| 2026-04-28 15:03 | 41.59113 | 2.57590 | 7971 ft | 274 kts | 221° |
| 2026-04-28 15:03 | 41.57694 | 2.55890 | 7966 ft | 273 kts | 221° |
| 2026-04-28 15:03 | 41.56279 | 2.54196 | 7976 ft | 273 kts | 221° |
| 2026-04-28 15:03 | 41.54861 | 2.52499 | 7971 ft | 273 kts | 221° |
| 2026-04-28 15:04 | 41.53490 | 2.50856 | 7957 ft | 258 kts | 221° |
| 2026-04-28 15:04 | 41.52140 | 2.49242 | 7336 ft | 263 kts | 220° |
| 2026-04-28 15:04 | 41.50788 | 2.47628 | 6665 ft | 259 kts | 220° |
| 2026-04-28 15:04 | 41.49453 | 2.46038 | 5989 ft | 256 kts | 220° |
| 2026-04-28 15:05 | 41.48133 | 2.44464 | 5327 ft | 257 kts | 220° |
| 2026-04-28 15:05 | 41.46804 | 2.42876 | 4930 ft | 257 kts | 220° |
| 2026-04-28 15:05 | 41.45497 | 2.41313 | 4778 ft | 248 kts | 220° |
| 2026-04-28 15:05 | 41.44240 | 2.39813 | 4648 ft | 238 kts | 220° |
| 2026-04-28 15:06 | 41.43033 | 2.38373 | 4505 ft | 229 kts | 220° |
| 2026-04-28 15:06 | 41.41851 | 2.36967 | 4329 ft | 226 kts | 220° |
| 2026-04-28 15:06 | 41.40685 | 2.35581 | 4180 ft | 220 kts | 220° |
| 2026-04-28 15:06 | 41.39569 | 2.34251 | 3997 ft | 211 kts | 220° |
| 2026-04-28 15:07 | 41.38501 | 2.32959 | 3815 ft | 206 kts | 224° |
| 2026-04-28 15:07 | 41.37709 | 2.31348 | 3430 ft | 211 kts | 243° |
| 2026-04-28 15:07 | 41.37107 | 2.29565 | 3120 ft | 210 kts | 243° |
| 2026-04-28 15:07 | 41.36510 | 2.27801 | 2831 ft | 208 kts | 242° |
| 2026-04-28 15:08 | 41.35923 | 2.26068 | 2622 ft | 200 kts | 243° |
| 2026-04-28 15:08 | 41.35370 | 2.24427 | 2404 ft | 190 kts | 241° |
| 2026-04-28 15:08 | 41.34826 | 2.22842 | 2118 ft | 187 kts | 242° |
| 2026-04-28 15:08 | 41.34295 | 2.21282 | 1839 ft | 184 kts | 242° |
| 2026-04-28 15:09 | 41.33780 | 2.19766 | 1534 ft | 176 kts | 243° |
| 2026-04-28 15:09 | 41.33300 | 2.18356 | 1344 ft | 157 kts | 242° |
| 2026-04-28 15:09 | 41.32859 | 2.17064 | 1134 ft | 149 kts | 242° |
| 2026-04-28 15:09 | 41.32577 | 2.16239 | 1022 ft | 147 kts | 243° |
| 2026-04-28 15:10 | 41.32015 | 2.14588 | 743 ft | 146 kts | 243° |
| 2026-04-28 15:10 | 41.31597 | 2.13362 | 568 ft | 145 kts | 243° |
| 2026-04-28 15:10 | 41.31186 | 2.12150 | 366 ft | 143 kts | 243° |
| 2026-04-28 15:10 | 41.30771 | 2.10948 | 161 ft | 142 kts | 243° |
| 2026-04-28 15:11 | 41.30365 | 2.09755 | 28 ft | 139 kts | 244° |
| 2026-04-28 15:11 | 41.30008 | 2.08732 | 24 ft | 92 kts | 245° |
| 2026-04-28 15:11 | 41.29841 | 2.08244 | 22 ft | 39 kts | 246° |
| 2026-04-28 15:11 | 41.29770 | 2.08018 | 18 ft | 20 kts | 250° |
| 2026-04-28 15:12 | 41.29748 | 2.07831 | 16 ft | 21 kts | 270° |
| 2026-04-28 15:12 | 41.29755 | 2.07696 | 14 ft | 12 kts | 276° |
| 2026-04-28 15:12 | 41.29794 | 2.07618 | 14 ft | 7 kts | 331° |
| 2026-04-28 15:12 | 41.29812 | 2.07607 | 14 ft | 1 kts | 335° |
| 2026-04-28 15:13 | 41.29832 | 2.07594 | 15 ft | 5 kts | 335° |
| 2026-04-28 15:13 | 41.29871 | 2.07571 | 16 ft | 7 kts | 336° |
| 2026-04-28 15:13 | 41.29923 | 2.07541 | 16 ft | 7 kts | 336° |
| 2026-04-28 15:13 | 41.29959 | 2.07529 | 17 ft | 4 kts | 2° |
| 2026-04-28 15:14 | 41.29984 | 2.07535 | 21 ft | 4 kts | 9° |
| 2026-04-28 15:14 | 41.30022 | 2.07534 | 20 ft | 5 kts | 348° |
| 2026-04-28 15:14 | 41.30052 | 2.07519 | 21 ft | 4 kts | 337° |
| 2026-04-28 15:14 | 41.30061 | 2.07513 | 23 ft | 0 kts | 335° |